createdAt,value
2018-07-13T00:00:38.097Z,15.60
2018-07-13T00:03:07.505Z,15.50
2018-07-13T00:05:36.849Z,15.50
2018-07-13T00:08:06.339Z,15.50
2018-07-13T00:13:04.482Z,15.50
2018-07-13T00:15:35.012Z,15.50
2018-07-13T00:18:04.346Z,15.50
2018-07-13T00:20:33.656Z,15.40
2018-07-13T00:25:31.753Z,15.40
2018-07-13T00:28:01.044Z,15.40
2018-07-13T00:30:30.311Z,15.30
2018-07-13T00:32:59.665Z,15.30
2018-07-13T00:35:28.975Z,15.30
2018-07-13T00:37:58.261Z,15.30
2018-07-13T00:40:27.579Z,15.40
2018-07-13T00:42:56.910Z,15.40
2018-07-13T00:45:26.189Z,15.40
2018-07-13T00:47:55.493Z,15.40
2018-07-13T00:50:24.779Z,15.30
2018-07-13T00:52:54.094Z,15.30
2018-07-13T00:55:23.496Z,15.30
2018-07-13T00:57:52.738Z,15.40
2018-07-13T01:00:31.117Z,15.30
2018-07-13T01:03:01.820Z,15.40
2018-07-13T01:05:31.482Z,15.30
2018-07-13T01:08:00.787Z,15.40
2018-07-13T01:10:30.182Z,15.40
2018-07-13T01:12:59.491Z,15.40
2018-07-13T01:15:28.939Z,15.40
2018-07-13T01:17:58.320Z,15.30
2018-07-13T01:20:27.656Z,15.30
2018-07-13T01:22:56.947Z,15.20
2018-07-13T01:25:26.247Z,15.20
2018-07-13T01:27:55.532Z,15.30
2018-07-13T01:30:24.826Z,15.20
2018-07-13T01:32:54.147Z,15.10
2018-07-13T01:35:23.490Z,15.00
2018-07-13T01:37:52.796Z,15.00
2018-07-13T01:40:22.100Z,14.90
2018-07-13T01:42:51.559Z,14.80
2018-07-13T01:45:20.878Z,14.80
2018-07-13T01:47:50.184Z,14.80
2018-07-13T01:50:19.506Z,14.90
2018-07-13T01:52:48.833Z,14.90
2018-07-13T01:55:18.162Z,14.80
2018-07-13T01:57:47.463Z,14.80
2018-07-13T02:00:16.753Z,14.90
2018-07-13T02:02:46.030Z,14.80
2018-07-13T02:05:15.384Z,14.80
2018-07-13T02:07:44.706Z,14.70
2018-07-13T02:12:42.848Z,14.70
2018-07-13T02:15:12.124Z,14.70
2018-07-13T02:17:41.377Z,14.70
2018-07-13T02:20:10.676Z,14.70
2018-07-13T02:22:39.988Z,14.70
2018-07-13T02:25:09.263Z,14.80
2018-07-13T02:27:38.785Z,14.70
2018-07-13T02:30:08.095Z,14.70
2018-07-13T02:32:37.446Z,14.80
2018-07-13T02:35:06.839Z,14.80
2018-07-13T02:37:36.243Z,14.80
2018-07-13T02:40:05.819Z,14.80
2018-07-13T02:42:35.723Z,14.80
2018-07-13T02:45:05.328Z,14.70
2018-07-13T02:47:34.811Z,14.80
2018-07-13T02:50:04.520Z,14.80
2018-07-13T02:52:33.895Z,14.70
2018-07-13T02:55:03.865Z,14.70
2018-07-13T02:57:33.161Z,14.70
2018-07-13T03:00:02.574Z,14.60
2018-07-13T03:02:32.071Z,14.70
2018-07-13T03:05:01.464Z,14.80
2018-07-13T03:07:30.776Z,14.70
2018-07-13T03:10:00.167Z,14.60
2018-07-13T03:12:29.693Z,14.70
2018-07-13T03:14:59.133Z,14.80
2018-07-13T03:17:28.485Z,14.70
2018-07-13T03:19:57.849Z,14.80
2018-07-13T03:22:27.153Z,14.70
2018-07-13T03:24:56.504Z,14.70
2018-07-13T03:27:25.813Z,14.60
2018-07-13T03:29:55.130Z,14.70
2018-07-13T03:32:24.430Z,14.60
2018-07-13T03:34:54.522Z,14.70
2018-07-13T03:37:23.799Z,14.70
2018-07-13T03:39:53.127Z,14.70
2018-07-13T03:42:22.401Z,14.40
2018-07-13T03:44:51.718Z,14.20
2018-07-13T03:47:20.994Z,14.30
2018-07-13T03:49:50.356Z,14.20
2018-07-13T03:52:19.674Z,14.20
2018-07-13T03:54:48.981Z,14.20
2018-07-13T03:57:18.298Z,14.10
2018-07-13T03:59:47.579Z,14.20
2018-07-13T04:02:16.884Z,14.30
2018-07-13T04:04:46.261Z,14.30
2018-07-13T04:07:15.658Z,14.20
2018-07-13T04:09:44.979Z,14.10
2018-07-13T04:12:14.390Z,14.10
2018-07-13T04:14:43.840Z,14.10
2018-07-13T04:17:13.211Z,14.10
2018-07-13T04:19:42.570Z,14.10
2018-07-13T04:22:11.936Z,14.10
2018-07-13T04:27:10.473Z,14.10
2018-07-13T04:29:40.047Z,14.10
2018-07-13T04:32:09.368Z,14.30
2018-07-13T04:34:38.702Z,14.30
2018-07-13T04:37:08.015Z,14.30
2018-07-13T04:39:37.344Z,14.30
2018-07-13T04:42:06.844Z,14.30
2018-07-13T04:44:36.176Z,14.30
2018-07-13T04:47:05.607Z,14.30
2018-07-13T04:49:35.184Z,14.70
2018-07-13T04:52:04.710Z,15.10
2018-07-13T04:54:34.073Z,15.30
2018-07-13T04:57:03.486Z,15.50
2018-07-13T04:59:32.866Z,15.50
2018-07-13T05:02:02.323Z,15.70
2018-07-13T05:04:31.711Z,16.10
2018-07-13T05:07:01.146Z,16.20
2018-07-13T05:09:31.566Z,16.10
2018-07-13T05:12:00.936Z,16.30
2018-07-13T05:14:31.018Z,16.40
2018-07-13T05:17:00.356Z,15.80
2018-07-13T05:19:29.710Z,16.00
2018-07-13T05:21:59.377Z,16.00
2018-07-13T05:24:29.678Z,16.50
2018-07-13T05:26:59.376Z,16.90
2018-07-13T05:29:28.937Z,16.70
2018-07-13T05:31:58.380Z,16.70
2018-07-13T05:34:28.088Z,16.80
2018-07-13T05:36:57.489Z,16.90
2018-07-13T05:39:26.982Z,17.10
2018-07-13T05:41:56.488Z,17.20
2018-07-13T05:44:25.943Z,17.30
2018-07-13T05:46:55.817Z,17.40
2018-07-13T05:49:25.224Z,17.30
2018-07-13T05:51:54.916Z,17.50
2018-07-13T05:54:24.368Z,17.60
2018-07-13T05:56:53.930Z,17.60
2018-07-13T05:59:23.587Z,18.00
2018-07-13T06:01:53.041Z,18.00
2018-07-13T06:04:22.598Z,18.40
2018-07-13T06:06:52.006Z,18.50
2018-07-13T06:09:21.466Z,18.50
2018-07-13T06:11:50.964Z,18.90
2018-07-13T06:16:49.131Z,18.90
2018-07-13T06:19:18.506Z,19.00
2018-07-13T06:21:47.853Z,19.20
2018-07-13T06:24:17.199Z,19.50
2018-07-13T06:26:46.892Z,19.90
2018-07-13T06:31:45.114Z,20.00
2018-07-13T06:34:14.479Z,20.20
2018-07-13T06:36:44.019Z,20.30
2018-07-13T06:39:13.929Z,20.60
2018-07-13T06:41:43.316Z,21.00
2018-07-13T06:44:12.848Z,21.00
2018-07-13T06:46:45.761Z,20.90
2018-07-13T06:49:15.857Z,20.70
2018-07-13T06:51:45.302Z,21.10
2018-07-13T06:54:14.709Z,20.90
2018-07-13T06:56:44.063Z,20.80
2018-07-13T06:59:17.213Z,21.20
2018-07-13T07:01:47.576Z,21.00
2018-07-13T07:04:22.179Z,21.00
2018-07-13T07:06:52.256Z,22.10
2018-07-13T07:09:22.251Z,22.10
2018-07-13T07:12:38.653Z,22.50
2018-07-13T07:15:08.068Z,22.40
2018-07-13T07:17:37.551Z,22.30
2018-07-13T07:20:10.017Z,22.00
2018-07-13T07:22:39.540Z,22.50
2018-07-13T07:25:08.918Z,22.70
2018-07-13T07:27:38.413Z,22.50
2018-07-13T07:32:36.891Z,23.50
2018-07-13T07:35:06.844Z,23.10
2018-07-13T07:37:36.890Z,23.30
2018-07-13T07:40:06.430Z,23.10
2018-07-13T07:42:35.970Z,23.10
2018-07-13T07:45:06.215Z,23.30
2018-07-13T07:47:36.150Z,23.70
2018-07-13T07:52:34.999Z,23.80
2018-07-13T07:55:04.396Z,23.80
2018-07-13T07:57:33.854Z,24.00
2018-07-13T08:00:04.104Z,24.10
2018-07-13T08:02:33.457Z,24.00
2018-07-13T08:05:02.910Z,24.00
2018-07-13T08:10:01.048Z,23.90
2018-07-13T08:12:30.605Z,24.30
2018-07-13T08:17:28.860Z,24.20
2018-07-13T08:19:58.355Z,24.50
2018-07-13T08:22:41.344Z,24.40
2018-07-13T08:25:14.686Z,24.70
2018-07-13T08:27:46.187Z,25.20
2018-07-13T08:30:18.408Z,25.10
2018-07-13T08:32:49.354Z,25.20
2018-07-13T08:35:19.175Z,25.80
2018-07-13T08:37:48.588Z,25.60
2018-07-13T08:40:17.938Z,25.50
2018-07-13T08:42:47.267Z,25.80
2018-07-13T08:45:17.260Z,26.30
2018-07-13T08:47:46.740Z,25.80
2018-07-13T08:50:16.120Z,26.20
2018-07-13T08:55:16.155Z,26.10
2018-07-13T09:00:17.478Z,26.20
2018-07-13T09:02:47.090Z,26.70
2018-07-13T09:05:16.608Z,27.40
2018-07-13T09:07:46.081Z,26.60
2018-07-13T09:10:15.636Z,27.00
2018-07-13T09:12:45.110Z,27.60
2018-07-13T09:15:14.913Z,27.40
2018-07-13T09:17:44.295Z,26.90
2018-07-13T09:20:14.363Z,26.90
2018-07-13T09:22:43.830Z,27.20
2018-07-13T09:25:13.249Z,28.30
2018-07-13T09:27:42.686Z,28.60
2018-07-13T09:30:12.762Z,27.70
2018-07-13T09:32:42.343Z,26.70
2018-07-13T09:35:12.081Z,27.20
2018-07-13T09:37:41.658Z,28.80
2018-07-13T09:40:11.134Z,28.60
2018-07-13T09:42:40.973Z,28.80
2018-07-13T09:45:10.437Z,28.70
2018-07-13T09:47:39.993Z,28.30
2018-07-13T09:50:11.312Z,27.90
2018-07-13T09:52:40.821Z,27.20
2018-07-13T09:55:10.313Z,26.80
2018-07-13T09:57:39.922Z,26.60
2018-07-13T10:02:39.727Z,27.60
2018-07-13T10:05:09.418Z,28.30
2018-07-13T10:07:39.813Z,29.50
2018-07-13T10:10:11.574Z,27.70
2018-07-13T10:12:41.274Z,28.20
2018-07-13T10:15:10.655Z,27.90
2018-07-13T10:17:40.046Z,27.40
2018-07-13T10:20:10.337Z,27.70
2018-07-13T10:25:10.360Z,27.10
2018-07-13T10:27:42.692Z,26.60
2018-07-13T10:30:13.400Z,26.30
2018-07-13T10:32:44.955Z,25.90
2018-07-13T10:37:43.682Z,25.70
2018-07-13T10:40:13.061Z,25.50
2018-07-13T10:42:42.501Z,25.30
2018-07-13T10:45:12.036Z,25.20
2018-07-13T10:47:41.881Z,25.20
2018-07-13T10:50:11.417Z,25.30
2018-07-13T10:52:41.027Z,24.90
2018-07-13T10:55:10.365Z,24.80
2018-07-13T10:57:40.363Z,26.00
2018-07-13T11:00:09.754Z,27.10
2018-07-13T11:02:39.580Z,28.00
2018-07-13T11:05:09.232Z,28.20
2018-07-13T11:07:41.244Z,27.90
2018-07-13T11:10:11.212Z,27.40
2018-07-13T11:15:13.332Z,26.40
2018-07-13T11:17:45.209Z,26.10
2018-07-13T11:20:16.307Z,26.30
2018-07-13T11:22:45.877Z,25.40
2018-07-13T11:25:15.590Z,25.10
2018-07-13T11:27:46.827Z,25.60
2018-07-13T11:30:16.516Z,26.60
2018-07-13T11:32:46.693Z,26.60
2018-07-13T11:37:44.940Z,27.70
2018-07-13T11:40:14.291Z,27.40
2018-07-13T11:42:43.705Z,27.40
2018-07-13T11:45:14.069Z,27.60
2018-07-13T11:47:43.369Z,27.40
2018-07-13T11:50:12.967Z,27.80
2018-07-13T11:52:42.414Z,28.20
2018-07-13T11:55:11.853Z,28.50
2018-07-13T11:57:41.206Z,29.00
2018-07-13T12:00:10.773Z,29.90
2018-07-13T12:02:41.154Z,28.90
2018-07-13T12:07:42.466Z,30.00
2018-07-13T12:10:11.642Z,29.20
2018-07-13T12:12:42.227Z,28.40
2018-07-13T12:15:11.677Z,27.60
2018-07-13T12:17:41.057Z,28.20
2018-07-13T12:20:10.357Z,28.90
2018-07-13T12:22:40.500Z,29.10
2018-07-13T12:25:09.922Z,28.20
2018-07-13T12:27:39.319Z,27.70
2018-07-13T12:30:08.928Z,28.60
2018-07-13T12:32:38.356Z,29.60
2018-07-13T12:35:08.457Z,29.40
2018-07-13T12:37:38.132Z,28.50
2018-07-13T12:40:07.581Z,27.50
2018-07-13T12:42:37.031Z,27.60
2018-07-13T12:45:07.010Z,27.60
2018-07-13T12:47:36.353Z,26.80
2018-07-13T12:50:05.825Z,27.90
2018-07-13T12:52:35.213Z,28.00
2018-07-13T12:55:04.604Z,28.00
2018-07-13T12:57:33.973Z,27.10
2018-07-13T13:00:03.388Z,28.60
2018-07-13T13:02:33.187Z,28.60
2018-07-13T13:05:02.253Z,28.50
2018-07-13T13:07:31.315Z,28.60
2018-07-13T13:10:00.348Z,29.20
2018-07-13T13:12:29.424Z,30.10
2018-07-13T13:14:58.454Z,31.20
2018-07-13T13:17:27.516Z,29.90
2018-07-13T13:19:56.770Z,29.20
2018-07-13T13:22:25.872Z,29.90
2018-07-13T13:24:54.925Z,29.50
2018-07-13T13:27:24.035Z,29.30
2018-07-13T13:29:53.105Z,29.40
2018-07-13T13:32:22.213Z,29.30
2018-07-13T13:34:51.348Z,28.60
2018-07-13T13:37:20.412Z,28.40
2018-07-13T13:39:49.720Z,28.20
2018-07-13T13:42:18.788Z,28.10
2018-07-13T13:44:47.902Z,29.10
2018-07-13T13:47:17.135Z,29.20
2018-07-13T13:49:46.224Z,28.50
2018-07-13T13:52:15.309Z,27.90
2018-07-13T13:54:44.505Z,27.90
2018-07-13T13:57:13.505Z,27.40
2018-07-13T13:59:42.553Z,27.20
2018-07-13T14:02:11.649Z,29.50
2018-07-13T14:04:40.768Z,30.40
2018-07-13T14:07:09.905Z,30.90
2018-07-13T14:09:38.928Z,30.30
2018-07-13T14:12:08.102Z,31.10
2018-07-13T14:17:05.715Z,31.10
2018-07-13T14:19:34.806Z,30.40
2018-07-13T14:24:32.540Z,28.10
2018-07-13T14:27:01.725Z,27.90
2018-07-13T14:29:30.917Z,27.60
2018-07-13T14:32:00.022Z,27.30
2018-07-13T14:34:29.147Z,28.00
2018-07-13T14:36:58.126Z,28.60
2018-07-13T14:41:55.819Z,27.70
2018-07-13T14:46:53.578Z,27.80
2018-07-13T14:49:22.690Z,27.40
2018-07-13T14:51:51.729Z,26.80
2018-07-13T14:54:20.766Z,27.20
2018-07-13T14:56:50.192Z,28.20
2018-07-13T14:59:19.245Z,28.50
2018-07-13T15:01:48.380Z,27.90
2018-07-13T15:04:17.436Z,28.40
2018-07-13T15:06:46.583Z,28.50
2018-07-13T15:09:15.814Z,27.50
2018-07-13T15:11:45.061Z,27.40
2018-07-13T15:16:42.974Z,28.00
2018-07-13T15:19:12.031Z,27.50
2018-07-13T15:21:41.105Z,27.00
2018-07-13T15:24:10.718Z,27.00
2018-07-13T15:29:08.562Z,26.70
2018-07-13T15:31:37.714Z,26.80
2018-07-13T15:34:06.781Z,27.00
2018-07-13T15:36:35.801Z,27.10
2018-07-13T15:39:05.909Z,27.10
2018-07-13T15:41:34.990Z,26.80
2018-07-13T15:44:04.264Z,27.10
2018-07-13T15:46:33.264Z,26.70
2018-07-13T15:49:02.306Z,26.40
2018-07-13T15:51:32.344Z,26.60
2018-07-13T15:54:01.440Z,26.60
2018-07-13T15:56:30.538Z,26.60
2018-07-13T15:59:00.268Z,27.00
2018-07-13T16:01:29.258Z,27.10
2018-07-13T16:03:58.338Z,26.80
2018-07-13T16:06:27.357Z,26.70
2018-07-13T16:08:56.359Z,26.40
2018-07-13T16:11:26.774Z,26.30
2018-07-13T16:13:56.214Z,26.50
2018-07-13T16:16:25.815Z,26.60
2018-07-13T16:18:55.253Z,26.50
2018-07-13T16:23:53.343Z,26.70
2018-07-13T16:28:51.548Z,26.30
2018-07-13T16:31:20.903Z,26.20
2018-07-13T16:33:50.371Z,26.00
2018-07-13T16:36:19.648Z,26.10
2018-07-13T16:38:49.022Z,26.50
2018-07-13T16:41:18.484Z,26.70
2018-07-13T16:43:48.677Z,26.80
2018-07-13T16:48:46.975Z,26.70
2018-07-13T16:51:16.424Z,26.60
2018-07-13T16:53:45.838Z,26.50
2018-07-13T16:56:15.980Z,26.50
2018-07-13T16:58:45.315Z,26.50
2018-07-13T17:01:14.703Z,26.40
2018-07-13T17:03:43.973Z,26.30
2018-07-13T17:06:13.449Z,26.00
2018-07-13T17:08:43.048Z,26.30
2018-07-13T17:11:12.419Z,26.20
2018-07-13T17:18:39.446Z,26.40
2018-07-13T17:21:08.930Z,26.20
2018-07-13T17:23:38.305Z,26.00
2018-07-13T17:26:08.134Z,25.70
2018-07-13T17:28:37.560Z,25.80
2018-07-13T17:31:07.093Z,25.80
2018-07-13T17:33:36.411Z,25.70
2018-07-13T17:36:05.684Z,25.50
2018-07-13T17:38:35.619Z,25.50
2018-07-13T17:41:05.022Z,25.30
2018-07-13T17:43:34.435Z,25.10
2018-07-13T17:46:03.988Z,24.60
2018-07-13T17:48:33.581Z,24.20
2018-07-13T17:51:02.990Z,24.10
2018-07-13T17:53:32.603Z,24.00
2018-07-13T17:56:01.997Z,24.10
2018-07-13T17:58:31.434Z,23.70
2018-07-13T18:01:01.602Z,23.40
2018-07-13T18:03:31.042Z,23.10
2018-07-13T18:06:00.403Z,23.10
2018-07-13T18:08:30.033Z,23.00
2018-07-13T18:10:59.520Z,22.80
2018-07-13T18:13:29.155Z,22.80
2018-07-13T18:15:58.662Z,22.80
2018-07-13T18:18:28.098Z,22.70
2018-07-13T18:20:57.852Z,22.70
2018-07-13T18:23:27.199Z,22.70
2018-07-13T18:25:56.464Z,22.90
2018-07-13T18:28:25.834Z,23.20
2018-07-13T18:30:55.164Z,23.20
2018-07-13T18:33:24.593Z,23.20
2018-07-13T18:35:53.897Z,23.20
2018-07-13T18:38:23.189Z,23.20
2018-07-13T18:40:52.538Z,23.30
2018-07-13T18:43:21.958Z,23.50
2018-07-13T18:45:51.290Z,23.40
2018-07-13T18:48:20.649Z,23.20
2018-07-13T18:50:50.049Z,23.20
2018-07-13T18:53:19.294Z,22.90
2018-07-13T18:55:48.629Z,23.10
2018-07-13T18:58:18.023Z,23.30
2018-07-13T19:00:47.333Z,23.30
2018-07-13T19:05:45.832Z,23.30
2018-07-13T19:08:15.196Z,23.30
2018-07-13T19:10:45.074Z,23.20
2018-07-13T19:13:14.721Z,23.20
2018-07-13T19:15:44.206Z,23.10
2018-07-13T19:18:13.504Z,23.10
2018-07-13T19:20:43.066Z,22.90
2018-07-13T19:23:12.459Z,22.70
2018-07-13T19:25:42.122Z,22.40
2018-07-13T19:28:11.473Z,22.40
2018-07-13T19:30:40.935Z,22.50
2018-07-13T19:33:10.285Z,22.50
2018-07-13T19:38:08.518Z,22.10
2018-07-13T19:40:37.874Z,22.10
2018-07-13T19:43:08.043Z,22.00
2018-07-13T19:45:37.560Z,22.00
2018-07-13T19:48:07.298Z,21.90
2018-07-13T19:50:36.805Z,21.90
2018-07-13T19:53:06.579Z,21.90
2018-07-13T19:55:35.868Z,21.80
2018-07-13T19:58:05.258Z,21.70
2018-07-13T20:00:34.620Z,21.70
2018-07-13T20:03:04.135Z,21.70
2018-07-13T20:05:33.589Z,21.50
2018-07-13T20:08:03.673Z,21.60
2018-07-13T20:10:33.088Z,21.50
2018-07-13T20:15:32.209Z,21.50
2018-07-13T20:20:34.016Z,21.30
2018-07-13T20:23:03.685Z,21.10
2018-07-13T20:25:33.207Z,21.00
2018-07-13T20:28:03.238Z,20.90
2018-07-13T20:30:33.091Z,20.80
2018-07-13T20:33:02.530Z,20.80
2018-07-13T20:35:31.880Z,20.80
2018-07-13T20:38:01.827Z,20.70
2018-07-13T20:40:31.186Z,20.60
2018-07-13T20:43:00.773Z,20.50
2018-07-13T20:45:30.133Z,20.50
2018-07-13T20:47:59.588Z,20.60
2018-07-13T20:50:29.132Z,20.30
2018-07-13T20:52:59.006Z,20.20
2018-07-13T20:55:28.484Z,20.10
2018-07-13T20:57:58.608Z,19.90
2018-07-13T21:00:28.111Z,19.80
2018-07-13T21:02:57.541Z,19.80
2018-07-13T21:07:55.663Z,19.50
2018-07-13T21:12:54.023Z,19.40
2018-07-13T21:15:23.418Z,19.40
2018-07-13T21:17:53.662Z,19.30
2018-07-13T21:20:23.495Z,19.30
2018-07-13T21:22:52.941Z,19.10
2018-07-13T21:25:22.272Z,19.20
2018-07-13T21:27:51.724Z,19.20
2018-07-13T21:30:21.092Z,19.20
2018-07-13T21:32:50.458Z,19.10
2018-07-13T21:35:19.854Z,19.00
2018-07-13T21:37:49.263Z,19.00
2018-07-13T21:40:18.642Z,18.90
2018-07-13T21:42:48.203Z,18.80
2018-07-13T21:45:18.700Z,18.70
2018-07-13T21:47:47.965Z,18.70
2018-07-13T21:50:17.389Z,18.50
2018-07-13T21:52:46.801Z,18.40
2018-07-13T21:55:16.075Z,18.40
2018-07-13T21:57:45.624Z,18.30
2018-07-13T22:00:14.939Z,18.40
2018-07-13T22:02:44.502Z,18.40
2018-07-13T22:05:13.825Z,18.50
2018-07-13T22:07:43.255Z,18.60
2018-07-13T22:10:12.669Z,18.90
2018-07-13T22:17:40.230Z,18.60
2018-07-13T22:20:09.797Z,18.60
2018-07-13T22:22:39.536Z,18.60
2018-07-13T22:25:08.817Z,18.50
2018-07-13T22:27:38.331Z,18.50
2018-07-13T22:30:07.837Z,18.40
2018-07-13T22:32:37.267Z,18.20
2018-07-13T22:35:07.059Z,17.90
2018-07-13T22:37:36.438Z,17.80
2018-07-13T22:40:05.807Z,17.70
2018-07-13T22:42:35.410Z,17.60
2018-07-13T22:45:04.984Z,17.60
2018-07-13T22:47:34.361Z,17.60
2018-07-13T22:50:03.867Z,17.60
2018-07-13T22:52:33.241Z,17.50
2018-07-13T22:55:02.616Z,17.40
2018-07-13T22:57:31.895Z,17.40
2018-07-13T23:00:01.284Z,17.40
2018-07-13T23:02:30.492Z,17.40
2018-07-13T23:04:59.759Z,17.40
2018-07-13T23:07:29.045Z,17.40
2018-07-13T23:09:58.355Z,17.40
2018-07-13T23:12:27.808Z,17.40
2018-07-13T23:14:57.312Z,17.50
2018-07-13T23:17:26.667Z,17.70
2018-07-13T23:19:55.971Z,17.60
2018-07-13T23:22:25.387Z,17.40
2018-07-13T23:24:54.916Z,17.30
2018-07-13T23:27:24.185Z,17.30
2018-07-13T23:29:53.697Z,17.40
2018-07-13T23:32:23.083Z,17.30
2018-07-13T23:34:52.768Z,17.20
2018-07-13T23:37:22.143Z,17.20
2018-07-13T23:39:51.502Z,17.20
2018-07-13T23:42:20.867Z,17.10
2018-07-13T23:47:19.275Z,17.00
2018-07-13T23:52:17.583Z,17.00
2018-07-13T23:54:46.897Z,16.90
2018-07-13T23:57:16.221Z,16.90
2018-07-13T23:59:45.598Z,16.80
